Time,TemperatureF,DewpointF,PressureIn,WindDirection,WindDirectionDegrees,WindSpeedMPH,WindSpeedGustMPH,Humidity,HourlyPrecipIn,Conditions,Clouds,dailyrainin,SoftwareType,DateUTC
2013-01-17 00:01:00,31.6,31.1,29.90,NW,310,0.0,0.0,98,0.00,,,0.00,meteohub,2013-01-17 05:01:00,
2013-01-17 00:02:00,31.6,31.1,29.90,NW,310,0.0,0.0,98,0.00,,,0.00,meteohub,2013-01-17 05:02:00,
2013-01-17 00:03:00,31.6,31.1,29.90,NW,310,0.0,0.0,98,0.00,,,0.00,meteohub,2013-01-17 05:03:00,
2013-01-17 00:08:00,31.6,31.1,29.91,NW,310,0.0,0.0,98,0.00,,,0.00,meteohub,2013-01-17 05:08:00,
2013-01-17 00:13:00,31.6,31.1,29.91,NW,310,0.0,0.0,98,0.00,,,0.00,meteohub,2013-01-17 05:13:00,
2013-01-17 00:19:00,31.8,31.3,29.90,NW,310,0.0,0.0,98,0.00,,,0.00,meteohub,2013-01-17 05:19:00,
2013-01-17 00:24:00,31.8,31.3,29.91,NW,310,0.0,0.0,98,0.00,,,0.00,meteohub,2013-01-17 05:24:00,
2013-01-17 00:29:00,32.0,31.5,29.91,NW,310,0.0,0.0,98,0.00,,,0.00,meteohub,2013-01-17 05:29:00,
2013-01-17 00:34:00,32.2,31.6,29.91,NW,310,0.0,0.0,98,0.00,,,0.00,meteohub,2013-01-17 05:34:00,
2013-01-17 00:39:00,32.2,31.6,29.91,NW,310,0.0,0.0,98,0.00,,,0.00,meteohub,2013-01-17 05:39:00,
2013-01-17 00:44:00,32.2,31.6,29.92,NW,310,0.0,0.0,98,0.00,,,0.00,meteohub,2013-01-17 05:44:00,
2013-01-17 00:50:00,32.2,31.6,29.91,NW,310,0.0,0.0,98,0.00,,,0.00,meteohub,2013-01-17 05:50:00,
2013-01-17 00:55:00,32.2,31.6,29.91,NW,310,0.0,0.0,98,0.00,,,0.00,meteohub,2013-01-17 05:55:00,
2013-01-17 01:00:00,32.2,31.6,29.92,NW,310,0.0,0.0,98,0.00,,,0.00,meteohub,2013-01-17 06:00:00,
2013-01-17 01:05:00,32.2,31.6,29.91,NW,310,0.0,0.0,98,0.00,,,0.00,meteohub,2013-01-17 06:05:00,
2013-01-17 01:10:00,32.2,31.6,29.92,NW,310,0.0,0.0,98,0.00,,,0.00,meteohub,2013-01-17 06:10:00,
2013-01-17 01:15:00,32.0,31.5,29.91,NW,310,0.0,0.0,98,0.00,,,0.00,meteohub,2013-01-17 06:15:00,
2013-01-17 01:21:00,32.0,31.5,29.92,NW,310,0.0,0.0,98,0.00,,,0.00,meteohub,2013-01-17 06:21:00,
2013-01-17 01:26:00,31.8,31.3,29.91,NW,310,0.0,0.0,98,0.00,,,0.00,meteohub,2013-01-17 06:26:00,
2013-01-17 01:31:00,32.0,31.5,29.90,NW,310,0.0,0.0,98,0.00,,,0.00,meteohub,2013-01-17 06:31:00,
2013-01-17 01:36:00,31.8,31.3,29.91,NW,310,0.0,0.0,98,0.00,,,0.00,meteohub,2013-01-17 06:36:00,
2013-01-17 01:41:00,31.8,31.3,29.90,NW,310,0.0,0.0,98,0.00,,,0.00,meteohub,2013-01-17 06:41:00,
2013-01-17 01:47:00,31.8,31.3,29.90,NW,310,0.0,0.0,98,0.00,,,0.00,meteohub,2013-01-17 06:47:00,
2013-01-17 01:52:00,31.8,31.3,29.91,NW,310,0.0,0.0,98,0.00,,,0.00,meteohub,2013-01-17 06:52:00,
2013-01-17 01:57:00,31.6,31.1,29.92,NW,310,0.0,0.0,98,0.00,,,0.00,meteohub,2013-01-17 06:57:00,
2013-01-17 02:02:00,31.6,31.1,29.91,NW,310,0.0,0.0,98,0.00,,,0.00,meteohub,2013-01-17 07:02:00,
2013-01-17 02:07:00,31.6,31.1,29.92,NW,310,0.0,0.0,98,0.00,,,0.00,meteohub,2013-01-17 07:07:00,
2013-01-17 02:12:00,31.6,31.1,29.91,NW,310,0.0,0.0,98,0.00,,,0.00,meteohub,2013-01-17 07:12:00,
2013-01-17 02:17:00,31.6,31.1,29.91,NW,310,0.0,0.0,98,0.00,,,0.00,meteohub,2013-01-17 07:17:00,
2013-01-17 02:22:00,31.5,30.9,29.91,NW,310,0.0,0.0,98,0.00,,,0.00,meteohub,2013-01-17 07:22:00,
2013-01-17 02:27:00,31.5,30.9,29.92,NW,310,0.0,0.0,98,0.00,,,0.00,meteohub,2013-01-17 07:27:00,
2013-01-17 02:32:00,31.3,30.7,29.91,NW,310,0.0,0.0,98,0.00,,,0.00,meteohub,2013-01-17 07:32:00,
2013-01-17 02:37:00,31.3,30.7,29.92,NW,310,0.0,0.0,98,0.00,,,0.00,meteohub,2013-01-17 07:37:00,
2013-01-17 02:42:00,31.1,30.6,29.91,NW,310,0.0,0.0,98,0.00,,,0.00,meteohub,2013-01-17 07:42:00,
2013-01-17 02:47:00,30.9,30.4,29.91,NW,310,0.0,0.0,98,0.00,,,0.00,meteohub,2013-01-17 07:47:00,
2013-01-17 02:52:00,30.9,30.4,29.92,NW,310,0.0,0.0,98,0.00,,,0.00,meteohub,2013-01-17 07:52:00,
2013-01-17 02:57:00,30.9,30.4,29.92,NW,310,0.0,0.0,98,0.00,,,0.00,meteohub,2013-01-17 07:57:00,
2013-01-17 03:02:00,30.9,30.4,29.91,NW,310,0.0,0.0,98,0.00,,,0.00,meteohub,2013-01-17 08:02:00,
2013-01-17 03:07:00,30.9,30.4,29.91,NW,310,0.0,0.0,98,0.00,,,0.00,meteohub,2013-01-17 08:07:00,
2013-01-17 03:12:00,30.7,30.2,29.91,NW,310,0.0,0.0,98,0.00,,,0.00,meteohub,2013-01-17 08:12:00,
2013-01-17 03:17:00,30.7,30.2,29.91,NW,310,0.0,0.0,98,0.00,,,0.00,meteohub,2013-01-17 08:17:00,
2013-01-17 03:22:00,30.7,30.2,29.92,NW,310,0.0,0.0,98,0.00,,,0.00,meteohub,2013-01-17 08:22:00,
2013-01-17 03:27:00,30.7,30.2,29.92,NW,310,0.0,0.0,98,0.00,,,0.00,meteohub,2013-01-17 08:27:00,
2013-01-17 03:32:00,30.7,30.2,29.92,NW,310,0.0,0.0,98,0.00,,,0.00,meteohub,2013-01-17 08:32:00,
2013-01-17 03:37:00,30.7,30.2,29.92,NW,310,0.0,0.0,98,0.00,,,0.00,meteohub,2013-01-17 08:37:00,
2013-01-17 03:42:00,30.9,30.4,29.93,NW,310,0.0,0.0,98,0.00,,,0.00,meteohub,2013-01-17 08:42:00,
2013-01-17 03:47:00,30.9,30.4,29.92,NW,310,0.0,0.0,98,0.00,,,0.00,meteohub,2013-01-17 08:47:00,
2013-01-17 03:52:00,30.9,30.4,29.91,NW,310,0.0,0.0,98,0.00,,,0.00,meteohub,2013-01-17 08:52:00,
2013-01-17 03:57:00,30.9,30.4,29.92,NW,310,0.0,0.0,98,0.00,,,0.00,meteohub,2013-01-17 08:57:00,
2013-01-17 04:02:00,30.9,30.4,29.93,NW,310,0.0,0.0,98,0.00,,,0.00,meteohub,2013-01-17 09:02:00,
2013-01-17 04:07:00,31.1,30.6,29.92,NW,310,0.0,0.0,98,0.00,,,0.00,meteohub,2013-01-17 09:07:00,
2013-01-17 04:12:00,31.3,30.7,29.92,NW,310,0.0,0.0,98,0.00,,,0.00,meteohub,2013-01-17 09:12:00,
2013-01-17 04:17:00,31.5,30.9,29.92,NW,310,0.0,0.0,98,0.00,,,0.00,meteohub,2013-01-17 09:17:00,
2013-01-17 04:22:00,31.5,30.9,29.92,NW,310,0.0,0.0,98,0.00,,,0.00,meteohub,2013-01-17 09:22:00,
2013-01-17 04:27:00,31.6,31.1,29.91,North,-999,-999.0,0.0,98,0.00,,,0.00,meteohub,2013-01-17 09:27:00,
2013-01-17 04:32:00,31.8,31.3,29.92,NW,310,0.0,0.0,98,0.00,,,0.00,meteohub,2013-01-17 09:32:00,
2013-01-17 04:38:00,32.0,31.5,29.93,NW,310,0.0,0.0,98,0.00,,,0.00,meteohub,2013-01-17 09:38:00,
2013-01-17 04:43:00,32.2,31.6,29.92,NW,310,0.0,0.0,98,0.00,,,0.00,meteohub,2013-01-17 09:43:00,
2013-01-17 04:48:00,32.4,31.8,29.90,NW,310,0.0,0.0,98,0.00,,,0.00,meteohub,2013-01-17 09:48:00,
2013-01-17 04:53:00,32.4,31.8,29.91,NW,310,0.0,0.0,98,0.00,,,0.00,meteohub,2013-01-17 09:53:00,
2013-01-17 04:58:00,32.4,31.8,29.91,NW,310,0.0,0.0,98,0.00,,,0.00,meteohub,2013-01-17 09:58:00,
2013-01-17 05:03:00,32.4,31.8,29.91,NW,310,0.0,0.0,98,0.00,,,0.00,meteohub,2013-01-17 10:03:00,
2013-01-17 05:08:00,32.4,31.8,29.92,NW,310,0.0,0.0,98,0.00,,,0.00,meteohub,2013-01-17 10:08:00,
2013-01-17 05:13:00,32.4,31.8,29.92,NW,310,0.0,0.0,98,0.00,,,0.00,meteohub,2013-01-17 10:13:00,
2013-01-17 05:19:00,32.5,32.0,29.91,NW,310,0.0,0.0,98,0.00,,,0.00,meteohub,2013-01-17 10:19:00,
2013-01-17 05:23:00,32.5,32.0,29.92,NW,310,0.0,0.0,98,0.00,,,0.00,meteohub,2013-01-17 10:23:00,
2013-01-17 05:29:00,32.5,32.0,29.92,NW,310,0.0,0.0,98,0.00,,,0.00,meteohub,2013-01-17 10:29:00,
2013-01-17 05:34:00,32.4,31.8,29.92,NW,310,0.0,0.0,98,0.00,,,0.00,meteohub,2013-01-17 10:34:00,
2013-01-17 05:39:00,32.4,31.8,29.93,NW,310,0.0,0.0,98,0.00,,,0.00,meteohub,2013-01-17 10:39:00,
2013-01-17 05:44:00,32.4,31.8,29.93,NW,310,0.0,0.0,98,0.00,,,0.00,meteohub,2013-01-17 10:44:00,
2013-01-17 05:49:00,32.4,31.8,29.94,NW,310,0.0,0.0,98,0.00,,,0.00,meteohub,2013-01-17 10:49:00,
2013-01-17 05:54:00,32.2,31.6,29.94,NW,310,0.0,0.0,98,0.00,,,0.00,meteohub,2013-01-17 10:54:00,
2013-01-17 05:59:00,32.4,31.8,29.94,NW,310,0.0,0.0,98,0.00,,,0.00,meteohub,2013-01-17 10:59:00,
2013-01-17 06:04:00,32.4,31.8,29.95,NW,310,0.0,0.0,98,0.00,,,0.00,meteohub,2013-01-17 11:04:00,
2013-01-17 06:09:00,32.4,31.8,29.95,NW,310,0.0,0.0,98,0.00,,,0.00,meteohub,2013-01-17 11:09:00,
2013-01-17 06:15:00,32.2,31.6,29.95,NW,310,0.0,0.0,98,0.00,,,0.00,meteohub,2013-01-17 11:15:00,
2013-01-17 06:20:00,32.2,31.6,29.94,NW,310,0.0,0.0,98,0.00,,,0.00,meteohub,2013-01-17 11:20:00,
2013-01-17 06:25:00,32.2,31.5,29.95,NW,310,0.0,0.0,97,0.00,,,0.00,meteohub,2013-01-17 11:25:00,
2013-01-17 06:30:00,32.2,31.5,29.95,NW,310,0.0,0.0,97,0.00,,,0.00,meteohub,2013-01-17 11:30:00,
2013-01-17 06:35:00,32.2,31.5,29.96,NW,310,0.0,0.0,97,0.00,,,0.00,meteohub,2013-01-17 11:35:00,
2013-01-17 06:40:00,31.8,31.1,29.95,NW,310,0.0,0.0,97,0.00,,,0.00,meteohub,2013-01-17 11:40:00,
2013-01-17 06:45:00,31.8,31.1,29.96,NW,310,0.0,0.0,97,0.00,,,0.00,meteohub,2013-01-17 11:45:00,
2013-01-17 06:50:00,31.6,30.9,29.96,NW,310,0.0,0.0,97,0.00,,,0.00,meteohub,2013-01-17 11:50:00,
2013-01-17 06:55:00,31.5,30.7,29.96,NW,310,0.0,0.0,97,0.00,,,0.00,meteohub,2013-01-17 11:55:00,
2013-01-17 07:01:00,31.5,30.7,29.97,NW,310,0.0,0.0,97,0.00,,,0.00,meteohub,2013-01-17 12:01:00,
2013-01-17 07:06:00,31.3,30.6,29.98,NW,310,0.0,0.0,97,0.00,,,0.00,meteohub,2013-01-17 12:06:00,
2013-01-17 07:11:00,31.3,30.6,29.97,NW,310,0.0,0.0,97,0.00,,,0.00,meteohub,2013-01-17 12:11:00,
2013-01-17 07:16:00,31.1,30.4,29.98,NW,310,0.0,0.0,97,0.00,,,0.00,meteohub,2013-01-17 12:16:00,
2013-01-17 07:21:00,31.1,30.4,29.97,NW,310,0.0,0.0,97,0.00,,,0.00,meteohub,2013-01-17 12:21:00,
2013-01-17 07:26:00,30.9,30.2,29.99,NW,310,0.0,0.0,97,0.00,,,0.00,meteohub,2013-01-17 12:26:00,
2013-01-17 07:31:00,31.1,30.4,29.99,NW,310,0.0,0.0,97,0.00,,,0.00,meteohub,2013-01-17 12:31:00,
2013-01-17 07:37:00,31.1,30.4,29.98,NW,310,0.0,0.0,97,0.00,,,0.00,meteohub,2013-01-17 12:37:00,
2013-01-17 07:42:00,31.1,30.4,29.99,NW,310,0.0,0.0,97,0.00,,,0.00,meteohub,2013-01-17 12:42:00,
2013-01-17 07:47:00,31.1,30.4,29.99,NW,310,0.0,0.0,97,0.00,,,0.00,meteohub,2013-01-17 12:47:00,
2013-01-17 07:52:00,31.3,30.6,30.00,NW,310,0.0,0.0,97,0.00,,,0.00,meteohub,2013-01-17 12:52:00,
2013-01-17 07:57:00,31.5,30.9,30.00,NW,310,0.0,0.0,98,0.00,,,0.00,meteohub,2013-01-17 12:57:00,
2013-01-17 08:02:00,31.5,30.9,30.00,NW,310,0.0,0.0,98,0.00,,,0.00,meteohub,2013-01-17 13:02:00,
2013-01-17 08:07:00,31.6,31.1,30.00,NW,310,0.0,0.0,98,0.00,,,0.00,meteohub,2013-01-17 13:07:00,
2013-01-17 08:12:00,31.6,31.1,30.01,NW,310,0.0,0.0,98,0.00,,,0.00,meteohub,2013-01-17 13:12:00,
2013-01-17 08:17:00,31.8,31.3,30.01,NW,310,0.0,0.0,98,0.00,,,0.00,meteohub,2013-01-17 13:17:00,
2013-01-17 08:22:00,32.0,31.5,30.02,NW,310,0.0,0.0,98,0.00,,,0.00,meteohub,2013-01-17 13:22:00,
2013-01-17 08:27:00,32.4,31.8,30.03,NW,310,0.0,0.0,98,0.00,,,0.00,meteohub,2013-01-17 13:27:00,
2013-01-17 08:32:00,33.1,32.4,30.02,NW,310,0.0,0.0,97,0.00,,,0.00,meteohub,2013-01-17 13:32:00,
2013-01-17 08:37:00,33.4,32.4,30.03,NW,310,0.0,0.0,96,0.00,,,0.00,meteohub,2013-01-17 13:37:00,
2013-01-17 08:42:00,33.6,32.5,30.03,NW,310,0.0,0.0,96,0.00,,,0.00,meteohub,2013-01-17 13:42:00,
2013-01-17 08:47:00,34.2,32.5,30.04,NW,310,0.0,0.0,94,0.00,,,0.00,meteohub,2013-01-17 13:47:00,
2013-01-17 08:52:00,34.3,32.5,30.03,NW,310,0.0,0.0,93,0.00,,,0.00,meteohub,2013-01-17 13:52:00,
2013-01-17 08:57:00,34.5,32.2,30.03,NW,310,0.0,0.0,91,0.00,,,0.00,meteohub,2013-01-17 13:57:00,
2013-01-17 09:02:00,34.7,32.0,30.04,NW,310,0.0,0.0,90,0.00,,,0.00,meteohub,2013-01-17 14:02:00,
2013-01-17 09:07:00,34.9,32.0,30.03,NW,310,0.0,0.0,89,0.00,,,0.00,meteohub,2013-01-17 14:07:00,
2013-01-17 09:12:00,34.9,32.0,30.04,NW,310,0.0,0.0,89,0.00,,,0.00,meteohub,2013-01-17 14:12:00,
2013-01-17 09:17:00,35.1,32.4,30.04,NW,310,0.0,0.0,90,0.00,,,0.00,meteohub,2013-01-17 14:17:00,
2013-01-17 09:22:00,35.1,32.2,30.04,NW,310,0.0,0.0,89,0.00,,,0.00,meteohub,2013-01-17 14:22:00,
2013-01-17 09:27:00,35.2,32.4,30.04,NW,310,0.0,0.0,89,0.00,,,0.00,meteohub,2013-01-17 14:27:00,
2013-01-17 09:32:00,35.2,32.5,30.04,NW,310,0.0,0.0,90,0.00,,,0.00,meteohub,2013-01-17 14:32:00,
2013-01-17 09:37:00,35.2,32.4,30.04,NW,310,0.0,0.0,89,0.00,,,0.00,meteohub,2013-01-17 14:37:00,
2013-01-17 09:42:00,35.4,32.2,30.05,NW,310,0.0,0.0,88,0.00,,,0.00,meteohub,2013-01-17 14:42:00,
2013-01-17 09:47:00,35.6,32.2,30.04,NW,310,0.0,0.0,87,0.00,,,0.00,meteohub,2013-01-17 14:47:00,
2013-01-17 09:52:00,35.8,32.4,30.05,NW,310,0.0,0.0,87,0.00,,,0.00,meteohub,2013-01-17 14:52:00,
2013-01-17 09:57:00,36.0,32.5,30.05,NW,310,0.0,0.0,87,0.00,,,0.00,meteohub,2013-01-17 14:57:00,
2013-01-17 10:02:00,36.1,32.0,30.05,NW,310,0.0,0.0,85,0.00,,,0.00,meteohub,2013-01-17 15:02:00,
2013-01-17 10:07:00,36.5,32.7,30.05,NW,310,0.0,0.0,86,0.00,,,0.00,meteohub,2013-01-17 15:07:00,
2013-01-17 10:12:00,36.9,32.5,30.06,NW,310,0.0,0.0,84,0.00,,,0.00,meteohub,2013-01-17 15:12:00,
2013-01-17 10:17:00,37.2,33.1,30.06,NW,310,0.0,0.0,85,0.00,,,0.00,meteohub,2013-01-17 15:17:00,
2013-01-17 10:22:00,37.4,32.2,30.05,NW,310,0.0,0.0,81,0.00,,,0.00,meteohub,2013-01-17 15:22:00,
2013-01-17 10:27:00,37.6,32.9,30.04,NW,310,0.0,0.0,83,0.00,,,0.00,meteohub,2013-01-17 15:27:00,
2013-01-17 10:32:00,37.8,32.2,30.05,NW,310,0.0,0.0,80,0.00,,,0.00,meteohub,2013-01-17 15:32:00,
2013-01-17 10:37:00,37.8,32.5,30.04,NW,310,0.0,0.0,81,0.00,,,0.00,meteohub,2013-01-17 15:37:00,
2013-01-17 10:42:00,37.8,32.5,30.04,NW,310,0.0,0.0,81,0.00,,,0.00,meteohub,2013-01-17 15:42:00,
2013-01-17 10:47:00,38.1,32.7,30.04,NW,310,0.0,0.0,81,0.00,,,0.00,meteohub,2013-01-17 15:47:00,
2013-01-17 10:52:00,38.5,32.5,30.03,NW,310,0.0,0.0,79,0.00,,,0.00,meteohub,2013-01-17 15:52:00,
2013-01-17 10:57:00,38.5,32.5,30.03,NW,310,0.0,0.0,79,0.00,,,0.00,meteohub,2013-01-17 15:57:00,
2013-01-17 11:02:00,38.5,32.2,30.03,NW,310,0.0,0.0,78,0.00,,,0.00,meteohub,2013-01-17 16:02:00,
2013-01-17 11:07:00,38.7,32.7,30.04,NW,310,0.0,0.0,79,0.00,,,0.00,meteohub,2013-01-17 16:07:00,
2013-01-17 11:12:00,38.5,32.2,30.04,NW,310,0.0,0.0,78,0.00,,,0.00,meteohub,2013-01-17 16:12:00,
2013-01-17 11:17:00,38.7,31.8,30.04,NW,310,0.0,0.0,76,0.00,,,0.00,meteohub,2013-01-17 16:17:00,
2013-01-17 11:22:00,38.5,31.8,30.05,NW,310,0.0,0.0,77,0.00,,,0.00,meteohub,2013-01-17 16:22:00,
2013-01-17 11:27:00,38.5,32.2,30.05,NW,310,0.0,0.0,78,0.00,,,0.00,meteohub,2013-01-17 16:27:00,
2013-01-17 11:32:00,38.5,31.8,30.03,NW,310,0.0,0.0,77,0.00,,,0.00,meteohub,2013-01-17 16:32:00,
2013-01-17 11:37:00,38.5,31.8,30.03,NW,310,0.0,0.0,77,0.00,,,0.00,meteohub,2013-01-17 16:37:00,
2013-01-17 11:42:00,38.7,32.0,30.03,NW,310,0.0,0.0,77,0.00,,,0.00,meteohub,2013-01-17 16:42:00,
2013-01-17 11:47:00,38.8,32.2,30.03,NW,310,0.0,0.0,77,0.00,,,0.00,meteohub,2013-01-17 16:47:00,
2013-01-17 11:52:00,39.2,32.0,30.03,NW,310,0.0,0.0,75,0.00,,,0.00,meteohub,2013-01-17 16:52:00,
2013-01-17 11:57:00,39.4,32.7,30.03,NW,310,0.0,0.0,77,0.00,,,0.00,meteohub,2013-01-17 16:57:00,
2013-01-17 12:02:00,39.6,32.5,30.03,NW,310,0.0,0.0,76,0.00,,,0.00,meteohub,2013-01-17 17:02:00,
2013-01-17 12:07:00,39.6,32.4,30.03,NW,310,0.0,0.0,75,0.00,,,0.00,meteohub,2013-01-17 17:07:00,
2013-01-17 12:12:00,39.4,32.5,30.03,NW,310,0.0,0.0,76,0.00,,,0.00,meteohub,2013-01-17 17:12:00,
2013-01-17 12:16:00,39.4,32.7,30.03,NW,310,0.0,0.0,77,0.00,,,0.00,meteohub,2013-01-17 17:16:00,
2013-01-17 12:22:00,39.2,32.0,30.03,NW,310,0.0,0.0,75,0.00,,,0.00,meteohub,2013-01-17 17:22:00,
2013-01-17 12:27:00,39.2,32.4,30.03,NW,310,0.0,0.0,76,0.00,,,0.00,meteohub,2013-01-17 17:27:00,
2013-01-17 12:32:00,39.4,33.4,30.02,NW,310,0.0,0.0,79,0.00,,,0.00,meteohub,2013-01-17 17:32:00,
2013-01-17 12:37:00,39.7,33.8,30.02,NW,310,0.0,0.0,79,0.00,,,0.00,meteohub,2013-01-17 17:37:00,
2013-01-17 12:42:00,40.5,34.2,30.03,NW,310,0.0,0.0,78,0.00,,,0.00,meteohub,2013-01-17 17:42:00,
2013-01-17 12:47:00,40.8,32.9,30.03,NW,310,0.0,0.0,73,0.00,,,0.00,meteohub,2013-01-17 17:47:00,
2013-01-17 12:52:00,41.2,34.2,30.03,NW,310,0.0,0.0,76,0.00,,,0.00,meteohub,2013-01-17 17:52:00,
2013-01-17 12:57:00,41.5,33.6,30.04,NW,310,0.0,0.0,73,0.00,,,0.00,meteohub,2013-01-17 17:57:00,
2013-01-17 13:02:00,41.7,33.4,30.04,NW,310,0.0,0.0,72,0.00,,,0.00,meteohub,2013-01-17 18:02:00,
2013-01-17 13:07:00,42.1,34.3,30.03,NW,310,0.0,0.0,74,0.00,,,0.00,meteohub,2013-01-17 18:07:00,
2013-01-17 13:12:00,42.1,33.4,30.03,NW,310,0.0,0.0,71,0.00,,,0.00,meteohub,2013-01-17 18:12:00,
2013-01-17 13:17:00,42.3,33.6,30.02,NW,310,0.0,0.0,71,0.00,,,0.00,meteohub,2013-01-17 18:17:00,
2013-01-17 13:22:00,41.9,32.2,30.02,NW,310,0.0,0.0,68,0.00,,,0.00,meteohub,2013-01-17 18:22:00,
2013-01-17 13:27:00,42.1,32.0,30.03,NW,310,0.0,0.0,67,0.00,,,0.00,meteohub,2013-01-17 18:27:00,
2013-01-17 13:32:00,42.1,33.4,30.03,NW,310,0.0,0.0,71,0.00,,,0.00,meteohub,2013-01-17 18:32:00,
2013-01-17 13:37:00,42.1,32.4,30.03,NW,310,0.0,0.0,68,0.00,,,0.00,meteohub,2013-01-17 18:37:00,
2013-01-17 13:42:00,42.3,32.5,30.03,NW,310,0.0,0.0,68,0.00,,,0.00,meteohub,2013-01-17 18:42:00,
2013-01-17 13:47:00,42.4,31.8,30.02,NW,310,0.0,0.0,66,0.00,,,0.00,meteohub,2013-01-17 18:47:00,
2013-01-17 13:52:00,42.4,32.7,30.03,NW,310,0.0,0.0,68,0.00,,,0.00,meteohub,2013-01-17 18:52:00,
2013-01-17 13:57:00,42.4,31.5,30.03,NW,310,0.0,0.0,65,0.00,,,0.00,meteohub,2013-01-17 18:57:00,
2013-01-17 14:02:00,42.3,32.2,30.03,NW,310,0.0,0.0,67,0.00,,,0.00,meteohub,2013-01-17 19:02:00,
2013-01-17 14:07:00,41.9,30.6,30.03,NW,310,0.0,0.0,64,0.00,,,0.00,meteohub,2013-01-17 19:07:00,
2013-01-17 14:12:00,41.5,30.7,30.04,NW,310,0.0,0.0,65,0.00,,,0.00,meteohub,2013-01-17 19:12:00,
2013-01-17 14:17:00,41.4,30.9,30.05,NW,310,0.0,0.0,66,0.00,,,0.00,meteohub,2013-01-17 19:17:00,
2013-01-17 14:22:00,41.2,31.1,30.04,NW,310,0.0,0.0,67,0.00,,,0.00,meteohub,2013-01-17 19:22:00,
2013-01-17 14:27:00,41.0,30.2,30.04,NW,310,0.0,0.0,65,0.00,,,0.00,meteohub,2013-01-17 19:27:00,
2013-01-17 14:32:00,40.8,30.4,30.04,NW,310,0.0,0.0,66,0.00,,,0.00,meteohub,2013-01-17 19:32:00,
2013-01-17 14:37:00,40.6,30.9,30.04,NW,310,0.0,0.0,68,0.00,,,0.00,meteohub,2013-01-17 19:37:00,
2013-01-17 14:42:00,40.6,30.6,30.03,NW,310,0.0,0.0,67,0.00,,,0.00,meteohub,2013-01-17 19:42:00,
2013-01-17 14:47:00,40.6,30.6,30.04,NW,310,0.0,0.0,67,0.00,,,0.00,meteohub,2013-01-17 19:47:00,
2013-01-17 14:52:00,40.6,30.6,30.04,NW,310,0.0,0.0,67,0.00,,,0.00,meteohub,2013-01-17 19:52:00,
2013-01-17 14:57:00,40.6,30.6,30.04,NW,310,0.0,0.0,67,0.00,,,0.00,meteohub,2013-01-17 19:57:00,
2013-01-17 15:02:00,40.5,31.1,30.04,NW,310,0.0,0.0,69,0.00,,,0.00,meteohub,2013-01-17 20:02:00,
2013-01-17 15:07:00,40.1,30.4,30.04,NW,310,0.0,0.0,68,0.00,,,0.00,meteohub,2013-01-17 20:07:00,
2013-01-17 15:12:00,39.9,30.2,30.04,NW,310,0.0,0.0,68,0.00,,,0.00,meteohub,2013-01-17 20:12:00,
2013-01-17 15:17:00,39.7,30.0,30.04,NW,310,0.0,0.0,68,0.00,,,0.00,meteohub,2013-01-17 20:17:00,
2013-01-17 15:22:00,39.7,31.1,30.05,NW,310,0.0,0.0,71,0.00,,,0.00,meteohub,2013-01-17 20:22:00,
2013-01-17 15:27:00,39.6,30.6,30.04,NW,310,0.0,0.0,70,0.00,,,0.00,meteohub,2013-01-17 20:27:00,
2013-01-17 15:32:00,39.6,30.9,30.04,NW,310,0.0,0.0,71,0.00,,,0.00,meteohub,2013-01-17 20:32:00,
2013-01-17 15:37:00,39.4,30.4,30.05,NW,310,0.0,0.0,70,0.00,,,0.00,meteohub,2013-01-17 20:37:00,
2013-01-17 15:42:00,39.4,30.4,30.04,NW,310,0.0,0.0,70,0.00,,,0.00,meteohub,2013-01-17 20:42:00,
2013-01-17 15:47:00,39.4,30.7,30.04,NW,310,0.0,0.0,71,0.00,,,0.00,meteohub,2013-01-17 20:47:00,
2013-01-17 15:52:00,39.2,31.3,30.05,NW,310,0.0,0.0,73,0.00,,,0.00,meteohub,2013-01-17 20:52:00,
2013-01-17 15:57:00,39.0,30.4,30.05,NW,310,0.0,0.0,71,0.00,,,0.00,meteohub,2013-01-17 20:57:00,
2013-01-17 16:02:00,39.0,30.4,30.05,NW,310,0.0,0.0,71,0.00,,,0.00,meteohub,2013-01-17 21:02:00,
2013-01-17 16:07:00,39.0,30.0,30.06,NW,310,0.0,0.0,70,0.00,,,0.00,meteohub,2013-01-17 21:07:00,
2013-01-17 16:12:00,39.0,30.4,30.06,NW,310,0.0,0.0,71,0.00,,,0.00,meteohub,2013-01-17 21:12:00,
2013-01-17 16:17:00,38.8,30.6,30.06,NW,310,0.0,0.0,72,0.00,,,0.00,meteohub,2013-01-17 21:17:00,
2013-01-17 16:22:00,38.8,30.2,30.06,NW,310,0.0,0.0,71,0.00,,,0.00,meteohub,2013-01-17 21:22:00,
2013-01-17 16:27:00,38.7,30.0,30.06,NW,310,0.0,0.0,71,0.00,,,0.00,meteohub,2013-01-17 21:27:00,
2013-01-17 16:32:00,38.7,30.0,30.06,NW,310,0.0,0.0,71,0.00,,,0.00,meteohub,2013-01-17 21:32:00,
2013-01-17 16:37:00,38.5,29.8,30.06,NW,310,0.0,0.0,71,0.00,,,0.00,meteohub,2013-01-17 21:37:00,
2013-01-17 16:42:00,38.3,30.0,30.07,NW,310,0.0,0.0,72,0.00,,,0.00,meteohub,2013-01-17 21:42:00,
2013-01-17 16:47:00,38.1,30.2,30.06,NW,310,0.0,0.0,73,0.00,,,0.00,meteohub,2013-01-17 21:47:00,
2013-01-17 16:52:00,37.9,30.0,30.07,NW,310,0.0,0.0,73,0.00,,,0.00,meteohub,2013-01-17 21:52:00,
2013-01-17 16:57:00,37.8,29.8,30.06,NW,310,0.0,0.0,73,0.00,,,0.00,meteohub,2013-01-17 21:57:00,
2013-01-17 17:02:00,37.8,30.9,30.06,NW,310,0.0,0.0,76,0.00,,,0.00,meteohub,2013-01-17 22:02:00,
2013-01-17 17:07:00,37.6,31.1,30.07,NW,310,0.0,0.0,77,0.00,,,0.00,meteohub,2013-01-17 22:07:00,
2013-01-17 17:12:00,37.2,30.0,30.07,NW,310,0.0,0.0,75,0.00,,,0.00,meteohub,2013-01-17 22:12:00,
2013-01-17 17:17:00,37.0,29.8,30.08,NW,310,0.0,0.0,75,0.00,,,0.00,meteohub,2013-01-17 22:17:00,
2013-01-17 17:22:00,37.0,30.2,30.08,NW,310,0.0,0.0,76,0.00,,,0.00,meteohub,2013-01-17 22:22:00,
2013-01-17 17:27:00,36.9,30.4,30.07,NW,310,0.0,0.0,77,0.00,,,0.00,meteohub,2013-01-17 22:27:00,
2013-01-17 17:32:00,36.9,30.9,30.09,NW,310,0.0,0.0,79,0.00,,,0.00,meteohub,2013-01-17 22:32:00,
2013-01-17 17:37:00,36.7,30.7,30.08,NW,310,0.0,0.0,79,0.00,,,0.00,meteohub,2013-01-17 22:37:00,
2013-01-17 17:42:00,36.7,30.7,30.09,NW,310,0.0,0.0,79,0.00,,,0.00,meteohub,2013-01-17 22:42:00,
2013-01-17 17:47:00,36.5,31.3,30.09,NW,310,0.0,0.0,81,0.00,,,0.00,meteohub,2013-01-17 22:47:00,
2013-01-17 17:52:00,36.3,30.7,30.09,NW,310,0.0,0.0,80,0.00,,,0.00,meteohub,2013-01-17 22:52:00,
2013-01-17 17:57:00,36.1,30.9,30.09,NW,310,0.0,0.0,81,0.00,,,0.00,meteohub,2013-01-17 22:57:00,
2013-01-17 18:02:00,36.1,30.6,30.10,NW,310,0.0,0.0,80,0.00,,,0.00,meteohub,2013-01-17 23:02:00,
2013-01-17 18:07:00,36.1,30.9,30.09,NW,310,0.0,0.0,81,0.00,,,0.00,meteohub,2013-01-17 23:07:00,
2013-01-17 18:12:00,36.1,30.9,30.09,NW,310,0.0,0.0,81,0.00,,,0.00,meteohub,2013-01-17 23:12:00,
2013-01-17 18:17:00,36.1,30.6,30.08,NW,310,0.0,0.0,80,0.00,,,0.00,meteohub,2013-01-17 23:17:00,
2013-01-17 18:22:00,36.1,30.6,30.08,NW,310,0.0,0.0,80,0.00,,,0.00,meteohub,2013-01-17 23:22:00,
2013-01-17 18:27:00,36.3,30.7,30.09,NW,310,0.0,0.0,80,0.00,,,0.00,meteohub,2013-01-17 23:27:00,
2013-01-17 18:32:00,36.3,31.1,30.09,NW,310,0.0,0.0,81,0.00,,,0.00,meteohub,2013-01-17 23:32:00,
2013-01-17 18:37:00,36.3,30.4,30.09,NW,310,0.0,0.0,79,0.00,,,0.00,meteohub,2013-01-17 23:37:00,
2013-01-17 18:42:00,36.3,30.2,30.10,NW,310,0.0,0.0,78,0.00,,,0.00,meteohub,2013-01-17 23:42:00,
2013-01-17 18:47:00,36.3,30.2,30.11,NW,310,0.0,0.0,78,0.00,,,0.00,meteohub,2013-01-17 23:47:00,
2013-01-17 18:52:00,36.1,30.0,30.10,NW,310,0.0,0.0,78,0.00,,,0.00,meteohub,2013-01-17 23:52:00,
2013-01-17 18:57:00,36.1,29.7,30.10,NW,310,0.0,0.0,77,0.00,,,0.00,meteohub,2013-01-17 23:57:00,
2013-01-17 19:03:00,36.1,30.0,30.11,NW,310,0.0,0.0,78,0.00,,,0.00,meteohub,2013-01-18 00:03:00,
2013-01-17 19:08:00,36.0,29.8,30.10,NW,310,0.0,0.0,78,0.00,,,0.00,meteohub,2013-01-18 00:08:00,
2013-01-17 19:13:00,36.0,29.5,30.09,NW,310,0.0,0.0,77,0.00,,,0.00,meteohub,2013-01-18 00:13:00,
2013-01-17 19:18:00,35.8,29.3,30.10,NW,310,0.0,0.0,77,0.00,,,0.00,meteohub,2013-01-18 00:18:00,
2013-01-17 19:23:00,35.8,29.3,30.10,NW,310,0.0,0.0,77,0.00,,,0.00,meteohub,2013-01-18 00:23:00,
2013-01-17 19:28:00,35.8,29.3,30.10,NW,310,0.0,0.0,77,0.00,,,0.00,meteohub,2013-01-18 00:28:00,
2013-01-17 19:34:00,35.6,29.1,30.11,NW,310,0.0,0.0,77,0.00,,,0.00,meteohub,2013-01-18 00:34:00,
2013-01-17 19:39:00,35.4,28.9,30.09,NW,310,0.0,0.0,77,0.00,,,0.00,meteohub,2013-01-18 00:39:00,
2013-01-17 19:44:00,35.2,28.0,30.10,NW,310,0.0,0.0,75,0.00,,,0.00,meteohub,2013-01-18 00:44:00,
2013-01-17 19:49:00,35.1,27.9,30.09,NW,310,0.0,0.0,75,0.00,,,0.00,meteohub,2013-01-18 00:49:00,
2013-01-17 19:54:00,34.9,28.0,30.09,NW,310,0.0,0.0,76,0.00,,,0.00,meteohub,2013-01-18 00:54:00,
2013-01-17 19:59:00,34.7,27.3,30.09,NW,310,0.0,0.0,74,0.00,,,0.00,meteohub,2013-01-18 00:59:00,
2013-01-17 20:05:00,34.5,27.5,30.09,NW,310,0.0,0.0,75,0.00,,,0.00,meteohub,2013-01-18 01:05:00,
2013-01-17 20:10:00,34.5,27.5,30.09,NW,310,0.0,0.0,75,0.00,,,0.00,meteohub,2013-01-18 01:10:00,
2013-01-17 20:15:00,34.3,27.3,30.09,NW,310,0.0,0.0,75,0.00,,,0.00,meteohub,2013-01-18 01:15:00,
2013-01-17 20:20:00,34.3,27.5,30.10,NW,310,0.0,0.0,76,0.00,,,0.00,meteohub,2013-01-18 01:20:00,
2013-01-17 20:25:00,34.2,26.8,30.10,NW,310,0.0,0.0,74,0.00,,,0.00,meteohub,2013-01-18 01:25:00,
2013-01-17 20:30:00,34.0,26.2,30.10,NW,310,0.0,0.0,73,0.00,,,0.00,meteohub,2013-01-18 01:30:00,
2013-01-17 20:35:00,33.8,26.1,30.10,NW,310,0.0,0.0,73,0.00,,,0.00,meteohub,2013-01-18 01:35:00,
2013-01-17 20:41:00,33.6,25.2,30.10,NW,310,0.0,0.0,71,0.00,,,0.00,meteohub,2013-01-18 01:41:00,
2013-01-17 20:46:00,33.4,25.3,30.10,NW,310,0.0,0.0,72,0.00,,,0.00,meteohub,2013-01-18 01:46:00,
2013-01-17 20:51:00,33.4,25.3,30.10,NW,310,0.0,0.0,72,0.00,,,0.00,meteohub,2013-01-18 01:51:00,
2013-01-17 20:56:00,33.3,24.6,30.10,NW,310,0.0,0.0,70,0.00,,,0.00,meteohub,2013-01-18 01:56:00,
2013-01-17 21:01:00,33.3,24.6,30.09,NW,310,0.0,0.0,70,0.00,,,0.00,meteohub,2013-01-18 02:01:00,
2013-01-17 21:07:00,33.3,25.2,30.09,NW,310,0.0,0.0,72,0.00,,,0.00,meteohub,2013-01-18 02:07:00,
2013-01-17 21:12:00,33.1,25.0,30.09,NW,310,0.0,0.0,72,0.00,,,0.00,meteohub,2013-01-18 02:12:00,
2013-01-17 21:17:00,33.1,25.0,30.08,NW,310,0.0,0.0,72,0.00,,,0.00,meteohub,2013-01-18 02:17:00,
2013-01-17 21:22:00,32.9,25.2,30.08,NW,310,0.0,0.0,73,0.00,,,0.00,meteohub,2013-01-18 02:22:00,
2013-01-17 21:27:00,32.9,24.8,30.07,NW,310,0.0,0.0,72,0.00,,,0.00,meteohub,2013-01-18 02:27:00,
2013-01-17 21:32:00,32.7,24.6,30.08,NW,310,0.0,0.0,72,0.00,,,0.00,meteohub,2013-01-18 02:32:00,
2013-01-17 21:37:00,32.7,25.0,30.08,NW,310,0.0,0.0,73,0.00,,,0.00,meteohub,2013-01-18 02:37:00,
2013-01-17 21:42:00,32.5,24.4,30.08,NW,310,0.0,0.0,72,0.00,,,0.00,meteohub,2013-01-18 02:42:00,
2013-01-17 21:47:00,32.5,24.8,30.08,NW,310,0.0,0.0,73,0.00,,,0.00,meteohub,2013-01-18 02:47:00,
2013-01-17 21:52:00,32.5,24.8,30.09,NW,310,0.0,0.0,73,0.00,,,0.00,meteohub,2013-01-18 02:52:00,
2013-01-17 21:57:00,32.4,24.6,30.09,NW,310,0.0,0.0,73,0.00,,,0.00,meteohub,2013-01-18 02:57:00,
2013-01-17 22:02:00,32.4,25.0,30.08,NW,310,0.0,0.0,74,0.00,,,0.00,meteohub,2013-01-18 03:02:00,
2013-01-17 22:07:00,32.4,24.6,30.08,NW,310,0.0,0.0,73,0.00,,,0.00,meteohub,2013-01-18 03:07:00,
2013-01-17 22:12:00,32.2,24.3,30.08,NW,310,0.0,0.0,72,0.00,,,0.00,meteohub,2013-01-18 03:12:00,
2013-01-17 22:17:00,32.0,23.7,30.07,NW,310,0.0,0.0,71,0.00,,,0.00,meteohub,2013-01-18 03:17:00,
2013-01-17 22:22:00,31.8,23.9,30.06,NW,310,0.0,0.0,72,0.00,,,0.00,meteohub,2013-01-18 03:22:00,
2013-01-17 22:28:00,31.6,23.9,30.06,NW,310,0.0,0.0,73,0.00,,,0.00,meteohub,2013-01-18 03:28:00,
2013-01-17 22:33:00,31.6,23.7,30.05,NW,310,0.0,0.0,72,0.00,,,0.00,meteohub,2013-01-18 03:33:00,
2013-01-17 22:38:00,31.5,23.5,30.05,NW,310,0.0,0.0,72,0.00,,,0.00,meteohub,2013-01-18 03:38:00,
2013-01-17 22:43:00,31.3,23.7,30.04,NW,310,0.0,0.0,73,0.00,,,0.00,meteohub,2013-01-18 03:43:00,
2013-01-17 22:48:00,31.1,23.2,30.03,NW,310,0.0,0.0,72,0.00,,,0.00,meteohub,2013-01-18 03:48:00,
2013-01-17 22:53:00,30.9,23.0,30.02,NW,310,0.0,0.0,72,0.00,,,0.00,meteohub,2013-01-18 03:53:00,
2013-01-17 22:58:00,30.9,23.0,30.03,NW,310,0.0,0.0,72,0.00,,,0.00,meteohub,2013-01-18 03:58:00,
2013-01-17 23:03:00,30.7,23.2,30.05,NW,310,0.0,0.0,73,0.00,,,0.00,meteohub,2013-01-18 04:03:00,
2013-01-17 23:08:00,30.7,22.8,30.06,NW,310,0.0,0.0,72,0.00,,,0.00,meteohub,2013-01-18 04:08:00,
2013-01-17 23:13:00,30.7,23.2,30.06,NW,310,0.0,0.0,73,0.00,,,0.00,meteohub,2013-01-18 04:13:00,
2013-01-17 23:19:00,30.7,23.2,30.05,NW,310,0.0,0.0,73,0.00,,,0.00,meteohub,2013-01-18 04:19:00,
2013-01-17 23:24:00,30.6,22.3,30.05,NW,310,0.0,0.0,71,0.00,,,0.00,meteohub,2013-01-18 04:24:00,
2013-01-17 23:29:00,30.6,22.6,30.06,NW,310,0.0,0.0,72,0.00,,,0.00,meteohub,2013-01-18 04:29:00,
2013-01-17 23:34:00,30.4,21.7,30.06,NW,310,0.0,0.0,70,0.00,,,0.00,meteohub,2013-01-18 04:34:00,
2013-01-17 23:39:00,30.2,20.8,30.06,NW,310,0.0,0.0,68,0.00,,,0.00,meteohub,2013-01-18 04:39:00,
2013-01-17 23:44:00,30.0,20.5,30.07,NW,310,0.0,0.0,67,0.00,,,0.00,meteohub,2013-01-18 04:44:00,
2013-01-17 23:49:00,29.8,20.3,30.07,NW,310,0.0,0.0,67,0.00,,,0.00,meteohub,2013-01-18 04:49:00,
2013-01-17 23:55:00,29.8,20.7,30.05,NW,310,0.0,0.0,68,0.00,,,0.00,meteohub,2013-01-18 04:55:00,